Time;durP1;ratioP1;P1;durP2;ratioP2;P2;SDS_P1;SDS_P2;PMS_P1;PMS_P2;Temp;Humidity;BMP_temperature;BMP_pressure;BME280_temperature;BME280_humidity;BME280_pressure;Samples;Min_cycle;Max_cycle;Signal;HPM_P1;HPM_P2
2024/04/02 00:00:09;;;;;;;;;;;;;;;;;;418326;23;1199;-83
2024/04/02 00:00:20;;;;;;;;;;;;;;;;;;412586;23;1281;-83
2024/04/02 00:00:32;;;;;;;;;;;;;;;;;;416421;23;1306;-83
2024/04/02 00:00:42;;;;;;;;;;;;;;;;;;414501;23;970;-82
2024/04/02 00:00:52;;;;;;;;;;;;;;;;;;414492;23;1196;-83
2024/04/02 00:01:06;;;;;;;;;;;;;;;;;;418316;23;1189;-82
2024/04/02 00:01:16;;;;;;;;;;;;;;;;;;416508;23;1001;-83
2024/04/02 00:01:26;;;;;;;;;;;;;;;;;;412253;24;1324;-83
2024/04/02 00:01:36;;;;;;;;;;;;;;;;;;416448;23;1072;-83
2024/04/02 00:01:47;;;;;;;;;;;;;;;;;;416397;23;768;-83
2024/04/02 00:01:57;;;;;;;;;;;;;;;;;;412323;24;977;-83
2024/04/02 00:02:07;;;;;;;;;;;;;;;;;;412501;24;938;-83
2024/04/02 00:02:18;;;;;;;;;;;;;;;;;;414281;23;1179;-83
2024/04/02 00:02:28;;;;;;;;;;;;;;;;;;414190;23;1175;-83
2024/04/02 00:02:38;;;;;;;;;;;;;;;;;;414316;23;1318;-83
2024/04/02 00:02:48;;;;;;;;;;;;;;;;;;414269;23;765;-83
2024/04/02 00:02:59;;;;;;;;;;;;;;;;;;412190;24;1310;-83
2024/04/02 00:03:09;;;;;;;;;;;;;;;;;;412498;24;919;-83
2024/04/02 00:03:21;;;;;;;;;;;;;;;;;;414149;23;1207;-83
2024/04/02 00:03:32;;;;;;;;;;;;;;;;;;414588;23;908;-83
2024/04/02 00:03:42;;;;;;;;;;;;;;;;;;414460;23;951;-83
2024/04/02 00:03:52;;;;;;;;;;;;;;;;;;414376;23;1018;-83
2024/04/02 00:04:12;;;;;;;;;;;;;;;;;;414466;23;982;-83
2024/04/02 00:04:22;;;;;;;;;;;;;;;;;;414240;23;997;-83
2024/04/02 00:04:33;;;;;;;;;;;;;;;;;;414973;23;963;-83
2024/04/02 00:04:43;;;;;;;;;;;;;;;;;;414480;23;1205;-83
2024/04/02 00:04:53;;;;;;;;;;;;;;;;;;415252;23;962;-83
2024/04/02 00:05:03;;;;;;;;;;;;;;;;;;417180;23;1021;-83
2024/04/02 00:05:13;;;;;;;;;;;;;;;;;;418944;23;1033;-83
2024/04/02 00:05:24;;;;;;;;;;;;;;;;;;414417;23;1278;-82
2024/04/02 00:05:34;;;;;;;;;;;;;;;;;;414507;23;1193;-83
2024/04/02 00:05:45;;;;;;;;;;;;;;;;;;414389;23;1304;-83
2024/04/02 00:05:55;;;;;;;;;;;;;;;;;;414591;23;959;-83
2024/04/02 00:06:05;;;;;;;;;;;;;;;;;;412271;23;1231;-83
2024/04/02 00:06:15;;;;;;;;;;;;;;;;;;414344;23;1164;-83
2024/04/02 00:06:25;;;;;;;;;;;;;;;;;;412579;24;963;-84
2024/04/02 00:06:36;;;;;;;;;;;;;;;;;;414500;23;994;-83
2024/04/02 00:06:47;;;;;;;;;;;;;;;;;;414500;23;938;-83
2024/04/02 00:06:57;;;;;;;;;;;;;;;;;;414498;23;1025;-83
2024/04/02 00:07:08;;;;;;;;;;;;;;;;;;414472;23;1026;-83
2024/04/02 00:07:18;;;;;;;;;;;;;;;;;;412515;23;1321;-83
2024/04/02 00:07:29;;;;;;;;;;;;;;;;;;412507;24;1053;-83
2024/04/02 00:07:39;;;;;;;;;;;;;;;;;;414528;23;975;-83
2024/04/02 00:07:49;;;;;;;;;;;;;;;;;;412480;24;1170;-83
2024/04/02 00:07:59;;;;;;;;;;;;;;;;;;410592;24;1277;-83
2024/04/02 00:08:09;;;;;;;;;;;;;;;;;;410713;24;953;-83
2024/04/02 00:08:20;;;;;;;;;;;;;;;;;;410729;24;919;-83
2024/04/02 00:08:30;;;;;;;;;;;;;;;;;;410678;24;872;-83
2024/04/02 00:08:41;;;;;;;;;;;;;;;;;;410717;24;911;-83
2024/04/02 00:08:51;;;;;;;;;;;;;;;;;;412473;24;1014;-83
2024/04/02 00:09:02;;;;;;;;;;;;;;;;;;412551;24;800;-83
2024/04/02 00:09:13;;;;;;;;;;;;;;;;;;414514;23;958;-83
2024/04/02 00:09:23;;;;;;;;;;;;;;;;;;414523;23;1022;-82
2024/04/02 00:09:33;;;;;;;;;;;;;;;;;;414538;23;871;-83
2024/04/02 00:09:43;;;;;;;;;;;;;;;;;;416359;23;1158;-83
2024/04/02 00:09:53;;;;;;;;;;;;;;;;;;416477;23;813;-83
2024/04/02 00:10:04;;;;;;;;;;;;;;;;;;416462;23;1001;-83
2024/04/02 00:10:14;;;;;;;;;;;;;;;;;;412468;24;1084;-82
2024/04/02 00:10:24;;;;;;;;;;;;;;;;;;416410;23;776;-83
2024/04/02 00:10:36;;;;;;;;;;;;;;;;;;416410;23;1001;-83
2024/04/02 00:10:46;;;;;;;;;;;;;;;;;;418324;23;1379;-83
2024/04/02 00:10:59;;;;;;;;;;;;;;;;;;414387;23;1870;-83
2024/04/02 00:11:09;;;;;;;;;;;;;;;;;;414508;23;959;-83
2024/04/02 00:11:20;;;;;;;;;;;;;;;;;;410523;24;1155;-83
2024/04/02 00:11:30;;;;;;;;;;;;;;;;;;410669;24;1018;-83
2024/04/02 00:11:40;;;;;;;;;;;;;;;;;;410603;24;876;-83
2024/04/02 00:11:50;;;;;;;;;;;;;;;;;;412577;24;1030;-83
2024/04/02 00:12:01;;;;;;;;;;;;;;;;;;414310;23;1337;-83
2024/04/02 00:12:12;;;;;;;;;;;;;;;;;;414541;23;1089;-83
2024/04/02 00:12:23;;;;;;;;;;;;;;;;;;416487;23;930;-83
2024/04/02 00:12:33;;;;;;;;;;;;;;;;;;416387;23;860;-83
2024/04/02 00:12:43;;;;;;;;;;;;;;;;;;414359;23;1091;-83
2024/04/02 00:12:54;;;;;;;;;;;;;;;;;;414440;23;1396;-83
2024/04/02 00:13:04;;;;;;;;;;;;;;;;;;416341;23;1336;-83
2024/04/02 00:13:15;;;;;;;;;;;;;;;;;;414448;23;1407;-83
2024/04/02 00:13:25;;;;;;;;;;;;;;;;;;414321;23;1157;-82
2024/04/02 00:13:35;;;;;;;;;;;;;;;;;;412574;24;995;-83
2024/04/02 00:13:46;;;;;;;;;;;;;;;;;;412530;24;1038;-83
2024/04/02 00:13:57;;;;;;;;;;;;;;;;;;412506;24;1246;-83
2024/04/02 00:14:07;;;;;;;;;;;;;;;;;;412360;24;785;-83
2024/04/02 00:14:17;;;;;;;;;;;;;;;;;;414380;23;1251;-83
2024/04/02 00:14:28;;;;;;;;;;;;;;;;;;416377;23;1291;-83
2024/04/02 00:14:38;;;;;;;;;;;;;;;;;;414482;23;1185;-83
2024/04/02 00:14:48;;;;;;;;;;;;;;;;;;412451;24;1311;-84
2024/04/02 00:14:59;;;;;;;;;;;;;;;;;;414402;23;1146;-83
2024/04/02 00:15:09;;;;;;;;;;;;;;;;;;416443;23;994;-83
2024/04/02 00:15:20;;;;;;;;;;;;;;;;;;416351;23;1266;-83
2024/04/02 00:15:30;;;;;;;;;;;;;;;;;;416436;23;906;-82
2024/04/02 00:15:44;;;;;;;;;;;;;;;;;;416482;23;890;-84
2024/04/02 00:15:54;;;;;;;;;;;;;;;;;;414441;23;951;-83
2024/04/02 00:16:05;;;;;;;;;;;;;;;;;;414609;23;800;-83
2024/04/02 00:16:15;;;;;;;;;;;;;;;;;;414338;23;1161;-83
2024/04/02 00:16:26;;;;;;;;;;;;;;;;;;416449;23;838;-83
2024/04/02 00:16:36;;;;;;;;;;;;;;;;;;418280;23;1414;-83
2024/04/02 00:16:46;;;;;;;;;;;;;;;;;;416392;23;1053;-83
2024/04/02 00:16:56;;;;;;;;;;;;;;;;;;418282;23;890;-83
2024/04/02 00:17:06;;;;;;;;;;;;;;;;;;416584;23;808;-83
2024/04/02 00:17:17;;;;;;;;;;;;;;;;;;414262;23;1297;-83
2024/04/02 00:17:27;;;;;;;;;;;;;;;;;;418223;23;986;-83
2024/04/02 00:17:37;;;;;;;;;;;;;;;;;;418304;23;804;-83
2024/04/02 00:17:47;;;;;;;;;;;;;;;;;;416478;23;1092;-83
2024/04/02 00:18:01;;;;;;;;;;;;;;;;;;420381;23;792;-83
2024/04/02 00:18:11;;;;;;;;;;;;;;;;;;416356;23;1305;-83
2024/04/02 00:18:22;;;;;;;;;;;;;;;;;;412422;23;1655;-83
2024/04/02 00:18:32;;;;;;;;;;;;;;;;;;412617;24;955;-83
2024/04/02 00:18:42;;;;;;;;;;;;;;;;;;412512;24;1003;-83
2024/04/02 00:18:52;;;;;;;;;;;;;;;;;;412487;24;915;-84
2024/04/02 00:19:03;;;;;;;;;;;;;;;;;;414324;23;787;-83
2024/04/02 00:19:14;;;;;;;;;;;;;;;;;;414281;23;959;-83
2024/04/02 00:19:24;;;;;;;;;;;;;;;;;;418199;23;1541;-83
2024/04/02 00:19:35;;;;;;;;;;;;;;;;;;420318;23;954;-83
2024/04/02 00:19:45;;;;;;;;;;;;;;;;;;414379;23;1298;-83
2024/04/02 00:19:55;;;;;;;;;;;;;;;;;;414423;23;991;-83
2024/04/02 00:20:06;;;;;;;;;;;;;;;;;;410506;24;1263;-84
2024/04/02 00:20:16;;;;;;;;;;;;;;;;;;412545;24;1006;-83
2024/04/02 00:20:27;;;;;;;;;;;;;;;;;;414252;23;1202;-83
2024/04/02 00:20:38;;;;;;;;;;;;;;;;;;416303;23;1353;-83
2024/04/02 00:20:48;;;;;;;;;;;;;;;;;;414359;23;1167;-83
2024/04/02 00:20:59;;;;;;;;;;;;;;;;;;414427;23;1008;-83
2024/04/02 00:21:10;;;;;;;;;;;;;;;;;;418341;23;1293;-83
2024/04/02 00:21:20;;;;;;;;;;;;;;;;;;416373;23;1194;-83
2024/04/02 00:21:30;;;;;;;;;;;;;;;;;;418361;23;957;-84
2024/04/02 00:21:40;;;;;;;;;;;;;;;;;;420464;23;808;-83
2024/04/02 00:21:51;;;;;;;;;;;;;;;;;;416285;23;1276;-83
2024/04/02 00:22:01;;;;;;;;;;;;;;;;;;414318;23;1318;-84
2024/04/02 00:22:11;;;;;;;;;;;;;;;;;;414265;23;1033;-83
2024/04/02 00:22:21;;;;;;;;;;;;;;;;;;414607;23;915;-83
2024/04/02 00:22:32;;;;;;;;;;;;;;;;;;412405;24;829;-83
2024/04/02 00:22:42;;;;;;;;;;;;;;;;;;412499;24;983;-83
2024/04/02 00:22:52;;;;;;;;;;;;;;;;;;412449;24;1301;-83
2024/04/02 00:23:03;;;;;;;;;;;;;;;;;;412574;24;995;-83
2024/04/02 00:23:13;;;;;;;;;;;;;;;;;;414431;23;895;-83
2024/04/02 00:23:23;;;;;;;;;;;;;;;;;;414556;23;1026;-83
2024/04/02 00:23:33;;;;;;;;;;;;;;;;;;414449;23;966;-83
2024/04/02 00:23:44;;;;;;;;;;;;;;;;;;412535;24;1298;-84
2024/04/02 00:23:54;;;;;;;;;;;;;;;;;;412385;24;974;-83
2024/04/02 00:24:04;;;;;;;;;;;;;;;;;;412507;24;1426;-83
2024/04/02 00:24:14;;;;;;;;;;;;;;;;;;414292;23;1363;-83
2024/04/02 00:24:25;;;;;;;;;;;;;;;;;;414227;23;1174;-83
2024/04/02 00:24:36;;;;;;;;;;;;;;;;;;416401;23;859;-83
2024/04/02 00:24:46;;;;;;;;;;;;;;;;;;416426;23;1026;-83
2024/04/02 00:24:57;;;;;;;;;;;;;;;;;;416367;23;982;-83
2024/04/02 00:25:07;;;;;;;;;;;;;;;;;;414438;23;1316;-83
2024/04/02 00:25:17;;;;;;;;;;;;;;;;;;414491;23;860;-83
2024/04/02 00:25:28;;;;;;;;;;;;;;;;;;416330;23;1295;-83
2024/04/02 00:25:38;;;;;;;;;;;;;;;;;;414396;23;1427;-84
2024/04/02 00:25:48;;;;;;;;;;;;;;;;;;416452;23;1166;-83
2024/04/02 00:25:59;;;;;;;;;;;;;;;;;;416350;23;931;-83
2024/04/02 00:26:09;;;;;;;;;;;;;;;;;;416332;23;1580;-83
2024/04/02 00:26:20;;;;;;;;;;;;;;;;;;414437;23;800;-83
2024/04/02 00:26:31;;;;;;;;;;;;;;;;;;414336;23;1434;-84
2024/04/02 00:26:41;;;;;;;;;;;;;;;;;;414451;23;1033;-83
2024/04/02 00:26:51;;;;;;;;;;;;;;;;;;416417;23;753;-84
2024/04/02 00:27:01;;;;;;;;;;;;;;;;;;418283;23;1231;-83
2024/04/02 00:27:12;;;;;;;;;;;;;;;;;;414318;23;1421;-83
2024/04/02 00:27:22;;;;;;;;;;;;;;;;;;414307;23;1002;-83
2024/04/02 00:27:32;;;;;;;;;;;;;;;;;;414514;23;1002;-83
2024/04/02 00:27:42;;;;;;;;;;;;;;;;;;416276;23;1279;-83
2024/04/02 00:27:53;;;;;;;;;;;;;;;;;;414511;23;792;-83
2024/04/02 00:28:04;;;;;;;;;;;;;;;;;;414392;23;1050;-83
2024/04/02 00:28:14;;;;;;;;;;;;;;;;;;414508;23;995;-84
2024/04/02 00:28:24;;;;;;;;;;;;;;;;;;414435;23;1301;-83
2024/04/02 00:28:34;;;;;;;;;;;;;;;;;;414414;23;1214;-83
2024/04/02 00:28:47;;;;;;;;;;;;;;;;;;416189;23;1218;-83
2024/04/02 00:28:57;;;;;;;;;;;;;;;;;;414527;23;947;-82
2024/04/02 00:29:07;;;;;;;;;;;;;;;;;;416168;23;1190;-83
2024/04/02 00:29:19;;;;;;;;;;;;;;;;;;412528;24;1342;-84
2024/04/02 00:29:29;;;;;;;;;;;;;;;;;;412331;24;1143;-83
2024/04/02 00:29:43;;;;;;;;;;;;;;;;;;414537;23;987;-83
2024/04/02 00:29:54;;;;;;;;;;;;;;;;;;416213;23;1262;-83
2024/04/02 00:30:04;;;;;;;;;;;;;;;;;;418297;23;1317;-83
2024/04/02 00:30:24;;;;;;;;;;;;;;;;;;418307;23;824;-83
2024/04/02 00:30:36;;;;;;;;;;;;;;;;;;418361;23;863;-83
2024/04/02 00:30:47;;;;;;;;;;;;;;;;;;418307;23;1288;-84
2024/04/02 00:31:00;;;;;;;;;;;;;;;;;;414309;23;1870;-83
2024/04/02 00:31:15;;;;;;;;;;;;;;;;;;410507;23;1272;-83
2024/04/02 00:31:25;;;;;;;;;;;;;;;;;;410464;24;1046;-83
2024/04/02 00:31:36;;;;;;;;;;;;;;;;;;410510;24;1190;-83
2024/04/02 00:31:46;;;;;;;;;;;;;;;;;;410643;24;990;-83
2024/04/02 00:31:56;;;;;;;;;;;;;;;;;;412361;24;1108;-83
2024/04/02 00:32:06;;;;;;;;;;;;;;;;;;418367;23;1355;-83
2024/04/02 00:32:17;;;;;;;;;;;;;;;;;;420381;23;883;-83
2024/04/02 00:32:27;;;;;;;;;;;;;;;;;;422392;23;1151;-83
2024/04/02 00:32:37;;;;;;;;;;;;;;;;;;418282;23;985;-83
2024/04/02 00:32:47;;;;;;;;;;;;;;;;;;418487;23;846;-83
2024/04/02 00:32:58;;;;;;;;;;;;;;;;;;420274;23;982;-83
2024/04/02 00:33:08;;;;;;;;;;;;;;;;;;418432;23;934;-83
2024/04/02 00:33:18;;;;;;;;;;;;;;;;;;412259;24;1196;-82
2024/04/02 00:33:29;;;;;;;;;;;;;;;;;;412413;24;1196;-83
2024/04/02 00:33:39;;;;;;;;;;;;;;;;;;414076;23;1284;-83
2024/04/02 00:33:49;;;;;;;;;;;;;;;;;;414426;23;895;-83
2024/04/02 00:33:59;;;;;;;;;;;;;;;;;;414073;23;1046;-83
2024/04/02 00:34:10;;;;;;;;;;;;;;;;;;416376;23;914;-83
2024/04/02 00:34:20;;;;;;;;;;;;;;;;;;414413;23;1006;-84
2024/04/02 00:34:30;;;;;;;;;;;;;;;;;;414354;23;1177;-83
2024/04/02 00:34:43;;;;;;;;;;;;;;;;;;418265;23;1291;-84
2024/04/02 00:34:53;;;;;;;;;;;;;;;;;;418262;23;1212;-83
2024/04/02 00:35:04;;;;;;;;;;;;;;;;;;416214;23;1389;-83
2024/04/02 00:35:14;;;;;;;;;;;;;;;;;;416099;23;1263;-83
2024/04/02 00:35:24;;;;;;;;;;;;;;;;;;414371;23;943;-83
2024/04/02 00:35:35;;;;;;;;;;;;;;;;;;416326;23;1512;-83
2024/04/02 00:35:45;;;;;;;;;;;;;;;;;;414313;23;991;-83
2024/04/02 00:36:06;;;;;;;;;;;;;;;;;;414483;23;1002;-84
2024/04/02 00:36:16;;;;;;;;;;;;;;;;;;412447;24;1175;-83
2024/04/02 00:36:26;;;;;;;;;;;;;;;;;;412348;24;1189;-83
2024/04/02 00:36:36;;;;;;;;;;;;;;;;;;414387;23;1306;-83
2024/04/02 00:36:48;;;;;;;;;;;;;;;;;;416164;23;1289;-83
2024/04/02 00:36:58;;;;;;;;;;;;;;;;;;416267;23;1071;-83
2024/04/02 00:37:08;;;;;;;;;;;;;;;;;;416228;23;1400;-83
2024/04/02 00:37:19;;;;;;;;;;;;;;;;;;416808;23;1319;-83
2024/04/02 00:37:29;;;;;;;;;;;;;;;;;;416389;23;946;-83
2024/04/02 00:37:40;;;;;;;;;;;;;;;;;;420330;23;1310;-84
2024/04/02 00:37:50;;;;;;;;;;;;;;;;;;420160;23;1098;-83
2024/04/02 00:38:01;;;;;;;;;;;;;;;;;;416307;23;1337;-83
2024/04/02 00:38:11;;;;;;;;;;;;;;;;;;416466;23;800;-83
2024/04/02 00:38:21;;;;;;;;;;;;;;;;;;416448;23;1006;-83
2024/04/02 00:38:32;;;;;;;;;;;;;;;;;;416156;23;761;-83
2024/04/02 00:38:42;;;;;;;;;;;;;;;;;;418463;23;883;-83
2024/04/02 00:38:52;;;;;;;;;;;;;;;;;;418413;23;919;-83
2024/04/02 00:39:03;;;;;;;;;;;;;;;;;;420436;23;934;-83
2024/04/02 00:39:13;;;;;;;;;;;;;;;;;;420311;23;993;-83
2024/04/02 00:39:23;;;;;;;;;;;;;;;;;;418188;23;1222;-83
2024/04/02 00:39:36;;;;;;;;;;;;;;;;;;418314;23;903;-84
2024/04/02 00:39:46;;;;;;;;;;;;;;;;;;420297;23;1259;-83
2024/04/02 00:40:00;;;;;;;;;;;;;;;;;;416204;23;1164;-83
2024/04/02 00:40:10;;;;;;;;;;;;;;;;;;416390;23;954;-83
2024/04/02 00:40:20;;;;;;;;;;;;;;;;;;414296;23;1314;-83
2024/04/02 00:40:31;;;;;;;;;;;;;;;;;;414325;23;819;-83
2024/04/02 00:40:41;;;;;;;;;;;;;;;;;;416354;23;974;-83
2024/04/02 00:40:52;;;;;;;;;;;;;;;;;;412571;24;869;-83
2024/04/02 00:41:02;;;;;;;;;;;;;;;;;;416301;23;847;-83
2024/04/02 00:41:12;;;;;;;;;;;;;;;;;;416427;23;1045;-84
2024/04/02 00:41:23;;;;;;;;;;;;;;;;;;416348;23;894;-83
2024/04/02 00:41:34;;;;;;;;;;;;;;;;;;418365;23;1001;-83
2024/04/02 00:41:45;;;;;;;;;;;;;;;;;;420223;23;1192;-83
2024/04/02 00:41:55;;;;;;;;;;;;;;;;;;418269;23;1286;-83
2024/04/02 00:42:05;;;;;;;;;;;;;;;;;;418297;23;954;-83
2024/04/02 00:42:16;;;;;;;;;;;;;;;;;;416254;23;1255;-83
2024/04/02 00:42:27;;;;;;;;;;;;;;;;;;418188;23;1001;-83
2024/04/02 00:42:37;;;;;;;;;;;;;;;;;;414499;23;858;-83
2024/04/02 00:42:48;;;;;;;;;;;;;;;;;;418293;23;792;-83
2024/04/02 00:43:04;;;;;;;;;;;;;;;;;;416229;23;1227;-83
2024/04/02 00:43:14;;;;;;;;;;;;;;;;;;420370;23;1048;-84
2024/04/02 00:43:25;;;;;;;;;;;;;;;;;;418203;23;899;-82
2024/04/02 00:43:35;;;;;;;;;;;;;;;;;;416387;23;1150;-83
2024/04/02 00:43:45;;;;;;;;;;;;;;;;;;416342;23;959;-83
2024/04/02 00:43:56;;;;;;;;;;;;;;;;;;416464;23;891;-83
2024/04/02 00:44:06;;;;;;;;;;;;;;;;;;416188;23;1353;-83
2024/04/02 00:44:16;;;;;;;;;;;;;;;;;;418261;23;1190;-84
2024/04/02 00:44:26;;;;;;;;;;;;;;;;;;418358;23;950;-83
2024/04/02 00:44:36;;;;;;;;;;;;;;;;;;416345;23;1162;-84
2024/04/02 00:44:47;;;;;;;;;;;;;;;;;;416530;23;946;-83
2024/04/02 00:44:57;;;;;;;;;;;;;;;;;;412263;23;1270;-83
2024/04/02 00:45:07;;;;;;;;;;;;;;;;;;414527;23;934;-83
2024/04/02 00:45:18;;;;;;;;;;;;;;;;;;412365;24;1232;-83
2024/04/02 00:45:28;;;;;;;;;;;;;;;;;;412404;24;1212;-84
2024/04/02 00:45:40;;;;;;;;;;;;;;;;;;414054;23;966;-83
2024/04/02 00:45:50;;;;;;;;;;;;;;;;;;416382;23;1297;-83
2024/04/02 00:46:01;;;;;;;;;;;;;;;;;;414465;23;883;-83
2024/04/02 00:46:12;;;;;;;;;;;;;;;;;;416207;23;1166;-83
2024/04/02 00:46:22;;;;;;;;;;;;;;;;;;416413;23;1022;-84
2024/04/02 00:46:32;;;;;;;;;;;;;;;;;;416360;23;986;-83
2024/04/02 00:46:42;;;;;;;;;;;;;;;;;;418299;23;1289;-83
2024/04/02 00:46:53;;;;;;;;;;;;;;;;;;414128;23;1166;-83
2024/04/02 00:47:03;;;;;;;;;;;;;;;;;;414312;23;1006;-83
2024/04/02 00:47:13;;;;;;;;;;;;;;;;;;416466;23;788;-82
2024/04/02 00:47:24;;;;;;;;;;;;;;;;;;416336;23;827;-83
2024/04/02 00:47:34;;;;;;;;;;;;;;;;;;416378;23;1156;-83
2024/04/02 00:47:45;;;;;;;;;;;;;;;;;;416226;23;1048;-83
2024/04/02 00:47:55;;;;;;;;;;;;;;;;;;412477;23;1158;-83
2024/04/02 00:48:06;;;;;;;;;;;;;;;;;;412359;24;1006;-83
2024/04/02 00:48:16;;;;;;;;;;;;;;;;;;418282;23;1220;-83
2024/04/02 00:48:27;;;;;;;;;;;;;;;;;;418374;23;756;-83
2024/04/02 00:48:38;;;;;;;;;;;;;;;;;;418437;23;894;-83
2024/04/02 00:48:48;;;;;;;;;;;;;;;;;;418235;23;974;-83
2024/04/02 00:48:58;;;;;;;;;;;;;;;;;;418389;23;870;-83
2024/04/02 00:49:08;;;;;;;;;;;;;;;;;;418387;23;950;-83
2024/04/02 00:49:19;;;;;;;;;;;;;;;;;;416437;23;955;-83
2024/04/02 00:49:29;;;;;;;;;;;;;;;;;;416452;23;970;-83
2024/04/02 00:49:40;;;;;;;;;;;;;;;;;;416388;23;1387;-83
2024/04/02 00:49:50;;;;;;;;;;;;;;;;;;416231;23;1216;-83
2024/04/02 00:50:01;;;;;;;;;;;;;;;;;;414447;23;1373;-83
2024/04/02 00:50:11;;;;;;;;;;;;;;;;;;414452;23;848;-83
2024/04/02 00:50:21;;;;;;;;;;;;;;;;;;412469;24;1181;-83
2024/04/02 00:50:32;;;;;;;;;;;;;;;;;;414351;23;1218;-83
2024/04/02 00:50:42;;;;;;;;;;;;;;;;;;418324;23;1152;-83
2024/04/02 00:50:53;;;;;;;;;;;;;;;;;;416654;23;1902;-84
2024/04/02 00:51:03;;;;;;;;;;;;;;;;;;416913;23;1146;-85
2024/04/02 00:51:13;;;;;;;;;;;;;;;;;;416867;23;1324;-85
2024/04/02 00:51:25;;;;;;;;;;;;;;;;;;417005;23;1000;-84
2024/04/02 00:51:35;;;;;;;;;;;;;;;;;;419154;23;1242;-85
2024/04/02 00:51:45;;;;;;;;;;;;;;;;;;419244;23;1004;-86
2024/04/02 00:51:56;;;;;;;;;;;;;;;;;;418961;23;1029;-85
2024/04/02 00:52:06;;;;;;;;;;;;;;;;;;419003;23;1310;-85
2024/04/02 00:52:16;;;;;;;;;;;;;;;;;;416611;23;1315;-85
2024/04/02 00:52:27;;;;;;;;;;;;;;;;;;414761;23;1245;-84
2024/04/02 00:52:39;;;;;;;;;;;;;;;;;;416466;23;1001;-85
2024/04/02 00:52:49;;;;;;;;;;;;;;;;;;416638;23;890;-85
2024/04/02 00:52:59;;;;;;;;;;;;;;;;;;416454;23;1195;-85
2024/04/02 00:53:10;;;;;;;;;;;;;;;;;;416662;23;978;-85
2024/04/02 00:53:21;;;;;;;;;;;;;;;;;;412551;24;1484;-85
2024/04/02 00:53:31;;;;;;;;;;;;;;;;;;414697;23;792;-85
2024/04/02 00:53:41;;;;;;;;;;;;;;;;;;414653;23;1017;-85
2024/04/02 00:53:52;;;;;;;;;;;;;;;;;;416461;23;1170;-85
2024/04/02 00:54:03;;;;;;;;;;;;;;;;;;418597;23;1266;-85
2024/04/02 00:54:13;;;;;;;;;;;;;;;;;;418774;23;1215;-85
2024/04/02 00:54:23;;;;;;;;;;;;;;;;;;416577;23;1072;-85
2024/04/02 00:54:33;;;;;;;;;;;;;;;;;;416740;23;1305;-85
2024/04/02 00:54:44;;;;;;;;;;;;;;;;;;416953;23;1068;-85
2024/04/02 00:54:55;;;;;;;;;;;;;;;;;;414670;23;1217;-85
2024/04/02 00:55:05;;;;;;;;;;;;;;;;;;416753;23;1037;-85
2024/04/02 00:55:16;;;;;;;;;;;;;;;;;;416973;23;891;-85
2024/04/02 00:55:26;;;;;;;;;;;;;;;;;;418712;23;1270;-85
2024/04/02 00:55:39;;;;;;;;;;;;;;;;;;418975;23;982;-85
2024/04/02 00:55:50;;;;;;;;;;;;;;;;;;416946;23;1248;-84
2024/04/02 00:56:01;;;;;;;;;;;;;;;;;;420669;23;1241;-85
2024/04/02 00:56:11;;;;;;;;;;;;;;;;;;420670;23;810;-85
2024/04/02 00:56:21;;;;;;;;;;;;;;;;;;418556;23;1018;-85
2024/04/02 00:56:32;;;;;;;;;;;;;;;;;;418517;23;1267;-85
2024/04/02 00:56:42;;;;;;;;;;;;;;;;;;418464;23;1284;-85
2024/04/02 00:56:52;;;;;;;;;;;;;;;;;;414599;23;1302;-85
2024/04/02 00:57:02;;;;;;;;;;;;;;;;;;414496;23;1291;-85
2024/04/02 00:57:13;;;;;;;;;;;;;;;;;;414665;23;994;-85
2024/04/02 00:57:23;;;;;;;;;;;;;;;;;;416509;23;1173;-85
2024/04/02 00:57:33;;;;;;;;;;;;;;;;;;416494;23;970;-85
2024/04/02 00:57:44;;;;;;;;;;;;;;;;;;418469;23;1261;-86
2024/04/02 00:57:54;;;;;;;;;;;;;;;;;;418543;23;973;-85
2024/04/02 00:58:05;;;;;;;;;;;;;;;;;;414517;23;1244;-85
2024/04/02 00:58:15;;;;;;;;;;;;;;;;;;412646;24;1166;-85
2024/04/02 00:58:26;;;;;;;;;;;;;;;;;;414660;23;820;-85
2024/04/02 00:58:37;;;;;;;;;;;;;;;;;;416681;23;918;-85
2024/04/02 00:58:47;;;;;;;;;;;;;;;;;;416656;23;949;-85
2024/04/02 00:58:58;;;;;;;;;;;;;;;;;;414610;23;1162;-85
2024/04/02 00:59:09;;;;;;;;;;;;;;;;;;416563;23;1186;-85
2024/04/02 00:59:20;;;;;;;;;;;;;;;;;;414628;23;1274;-85
2024/04/02 00:59:32;;;;;;;;;;;;;;;;;;414517;23;759;-85
2024/04/02 00:59:43;;;;;;;;;;;;;;;;;;414540;23;981;-85
2024/04/02 00:59:54;;;;;;;;;;;;;;;;;;414507;23;1148;-85
2024/04/02 01:00:04;;;;;;;;;;;;;;;;;;414548;23;1171;-85
2024/04/02 01:00:15;;;;;;;;;;;;;;;;;;416421;23;1206;-85
2024/04/02 01:00:25;;;;;;;;;;;;;;;;;;418672;23;914;-85
2024/04/02 01:00:36;;;;;;;;;;;;;;;;;;418244;23;1136;-85
2024/04/02 01:00:46;;;;;;;;;;;;;;;;;;418548;23;992;-85
2024/04/02 01:00:57;;;;;;;;;;;;;;;;;;416585;23;1036;-85
2024/04/02 01:01:07;;;;;;;;;;;;;;;;;;416628;23;996;-85
2024/04/02 01:01:18;;;;;;;;;;;;;;;;;;416525;23;977;-85
2024/04/02 01:01:28;;;;;;;;;;;;;;;;;;416481;23;1147;-85
2024/04/02 01:01:38;;;;;;;;;;;;;;;;;;416565;23;1017;-85
2024/04/02 01:01:50;;;;;;;;;;;;;;;;;;416574;23;1150;-85
2024/04/02 01:02:02;;;;;;;;;;;;;;;;;;416430;23;1017;-85
2024/04/02 01:02:13;;;;;;;;;;;;;;;;;;418574;23;973;-85
2024/04/02 01:02:23;;;;;;;;;;;;;;;;;;418522;23;867;-85
2024/04/02 01:02:33;;;;;;;;;;;;;;;;;;414536;23;1325;-85
2024/04/02 01:02:43;;;;;;;;;;;;;;;;;;414277;23;1164;-85
2024/04/02 01:02:54;;;;;;;;;;;;;;;;;;414572;23;819;-85
2024/04/02 01:03:04;;;;;;;;;;;;;;;;;;414539;23;1316;-85
2024/04/02 01:03:15;;;;;;;;;;;;;;;;;;416497;23;1231;-85
2024/04/02 01:03:25;;;;;;;;;;;;;;;;;;416259;23;1002;-85
2024/04/02 01:03:35;;;;;;;;;;;;;;;;;;418380;23;1021;-85
2024/04/02 01:03:45;;;;;;;;;;;;;;;;;;418514;23;990;-85
2024/04/02 01:03:56;;;;;;;;;;;;;;;;;;416568;23;1317;-85
2024/04/02 01:04:06;;;;;;;;;;;;;;;;;;416330;23;1456;-85
2024/04/02 01:04:19;;;;;;;;;;;;;;;;;;414467;23;1282;-85
2024/04/02 01:04:30;;;;;;;;;;;;;;;;;;414355;23;1191;-85
2024/04/02 01:04:41;;;;;;;;;;;;;;;;;;412566;24;1196;-85
2024/04/02 01:04:51;;;;;;;;;;;;;;;;;;414556;23;918;-85
2024/04/02 01:05:01;;;;;;;;;;;;;;;;;;414721;23;800;-85
2024/04/02 01:05:12;;;;;;;;;;;;;;;;;;416386;23;1264;-85
2024/04/02 01:05:23;;;;;;;;;;;;;;;;;;416519;23;986;-85
2024/04/02 01:05:34;;;;;;;;;;;;;;;;;;416442;23;795;-85
2024/04/02 01:05:44;;;;;;;;;;;;;;;;;;418475;23;1537;-85
2024/04/02 01:05:55;;;;;;;;;;;;;;;;;;418460;23;1211;-85
2024/04/02 01:06:05;;;;;;;;;;;;;;;;;;418538;23;954;-85
2024/04/02 01:06:16;;;;;;;;;;;;;;;;;;416446;23;839;-85
2024/04/02 01:06:26;;;;;;;;;;;;;;;;;;416481;23;1535;-85
2024/04/02 01:06:37;;;;;;;;;;;;;;;;;;416243;23;1212;-85
2024/04/02 01:06:47;;;;;;;;;;;;;;;;;;418443;23;1317;-85
2024/04/02 01:06:59;;;;;;;;;;;;;;;;;;418427;23;800;-85
2024/04/02 01:07:09;;;;;;;;;;;;;;;;;;416504;23;1245;-85
2024/04/02 01:07:20;;;;;;;;;;;;;;;;;;416534;23;970;-85
2024/04/02 01:07:30;;;;;;;;;;;;;;;;;;416513;23;1194;-85
2024/04/02 01:07:40;;;;;;;;;;;;;;;;;;414509;23;966;-85
2024/04/02 01:07:50;;;;;;;;;;;;;;;;;;414506;23;1029;-85
2024/04/02 01:08:02;;;;;;;;;;;;;;;;;;414525;23;1009;-85
2024/04/02 01:08:12;;;;;;;;;;;;;;;;;;414610;23;1069;-85
2024/04/02 01:08:22;;;;;;;;;;;;;;;;;;414432;23;1325;-85
2024/04/02 01:08:33;;;;;;;;;;;;;;;;;;416696;23;792;-86
2024/04/02 01:08:43;;;;;;;;;;;;;;;;;;416560;23;954;-85
2024/04/02 01:08:54;;;;;;;;;;;;;;;;;;420203;23;1152;-85
2024/04/02 01:09:04;;;;;;;;;;;;;;;;;;418439;23;1080;-85
2024/04/02 01:09:14;;;;;;;;;;;;;;;;;;418512;23;986;-85
2024/04/02 01:09:25;;;;;;;;;;;;;;;;;;418432;23;1052;-85
2024/04/02 01:09:35;;;;;;;;;;;;;;;;;;418595;23;985;-85
2024/04/02 01:09:45;;;;;;;;;;;;;;;;;;418368;23;1149;-85
2024/04/02 01:09:56;;;;;;;;;;;;;;;;;;418596;23;895;-85
2024/04/02 01:10:07;;;;;;;;;;;;;;;;;;418424;23;973;-85
2024/04/02 01:10:17;;;;;;;;;;;;;;;;;;418514;23;1283;-85
2024/04/02 01:10:27;;;;;;;;;;;;;;;;;;418565;23;824;-85
2024/04/02 01:10:38;;;;;;;;;;;;;;;;;;418484;23;1393;-85
2024/04/02 01:10:48;;;;;;;;;;;;;;;;;;418381;23;1020;-85
2024/04/02 01:10:58;;;;;;;;;;;;;;;;;;414523;23;1898;-85
2024/04/02 01:11:08;;;;;;;;;;;;;;;;;;414438;23;951;-85
2024/04/02 01:11:19;;;;;;;;;;;;;;;;;;414501;23;1273;-85
2024/04/02 01:11:29;;;;;;;;;;;;;;;;;;418445;23;938;-85
2024/04/02 01:11:40;;;;;;;;;;;;;;;;;;416608;23;1005;-85
2024/04/02 01:11:51;;;;;;;;;;;;;;;;;;414310;23;1244;-85
2024/04/02 01:12:01;;;;;;;;;;;;;;;;;;414664;23;1060;-85
2024/04/02 01:12:12;;;;;;;;;;;;;;;;;;414407;23;1246;-85
2024/04/02 01:12:22;;;;;;;;;;;;;;;;;;416356;23;1595;-85
2024/04/02 01:12:33;;;;;;;;;;;;;;;;;;416316;23;954;-85
2024/04/02 01:12:43;;;;;;;;;;;;;;;;;;418660;23;973;-85
2024/04/02 01:12:54;;;;;;;;;;;;;;;;;;418482;23;930;-85
2024/04/02 01:13:05;;;;;;;;;;;;;;;;;;418555;23;1333;-85
2024/04/02 01:13:15;;;;;;;;;;;;;;;;;;418330;23;871;-85
2024/04/02 01:13:26;;;;;;;;;;;;;;;;;;416576;23;921;-85
2024/04/02 01:13:36;;;;;;;;;;;;;;;;;;412574;24;1190;-85
2024/04/02 01:13:47;;;;;;;;;;;;;;;;;;412407;24;1351;-85
2024/04/02 01:13:57;;;;;;;;;;;;;;;;;;412479;24;1302;-84
2024/04/02 01:14:07;;;;;;;;;;;;;;;;;;412561;24;1332;-85
2024/04/02 01:14:18;;;;;;;;;;;;;;;;;;414522;23;1138;-85
2024/04/02 01:14:28;;;;;;;;;;;;;;;;;;416620;23;819;-85
2024/04/02 01:14:39;;;;;;;;;;;;;;;;;;416510;23;934;-85
2024/04/02 01:14:49;;;;;;;;;;;;;;;;;;416521;23;1273;-85
2024/04/02 01:14:59;;;;;;;;;;;;;;;;;;416594;23;819;-85
2024/04/02 01:15:09;;;;;;;;;;;;;;;;;;416619;23;1001;-85
2024/04/02 01:15:20;;;;;;;;;;;;;;;;;;416440;23;965;-85
2024/04/02 01:15:30;;;;;;;;;;;;;;;;;;414581;23;1226;-85